sensor_id;sensor_type;location;lat;lon;timestamp;pressure;altitude;pressure_sealevel;temperature;humidity
2339;BME280;1180;51.438;6.978;2022-10-04T00:02:23;101069.78;;;15.74;79.73
2339;BME280;1180;51.438;6.978;2022-10-04T00:04:59;101069.06;;;15.72;79.61
2339;BME280;1180;51.438;6.978;2022-10-04T00:07:35;101071.00;;;15.82;79.21
2339;BME280;1180;51.438;6.978;2022-10-04T00:10:13;101068.19;;;15.85;78.90
2339;BME280;1180;51.438;6.978;2022-10-04T00:12:47;101065.31;;;15.77;79.21
2339;BME280;1180;51.438;6.978;2022-10-04T00:15:34;101061.28;;;15.72;79.57
2339;BME280;1180;51.438;6.978;2022-10-04T00:25:54;101053.31;;;15.76;79.26
2339;BME280;1180;51.438;6.978;2022-10-04T00:39:12;101030.97;;;15.62;79.97
2339;BME280;1180;51.438;6.978;2022-10-04T00:44:40;101028.28;;;15.50;80.52
2339;BME280;1180;51.438;6.978;2022-10-04T00:47:52;101024.34;;;15.44;80.98
2339;BME280;1180;51.438;6.978;2022-10-04T00:50:33;101033.25;;;15.53;80.50
2339;BME280;1180;51.438;6.978;2022-10-04T00:53:01;101030.53;;;15.55;79.92
2339;BME280;1180;51.438;6.978;2022-10-04T00:55:41;101034.28;;;15.51;80.44
2339;BME280;1180;51.438;6.978;2022-10-04T00:58:31;101036.34;;;15.58;80.45
2339;BME280;1180;51.438;6.978;2022-10-04T01:00:58;101044.03;;;15.60;80.21
2339;BME280;1180;51.438;6.978;2022-10-04T01:03:29;101036.97;;;15.49;80.30
2339;BME280;1180;51.438;6.978;2022-10-04T01:06:00;101040.16;;;15.40;81.15
2339;BME280;1180;51.438;6.978;2022-10-04T01:08:43;101027.25;;;15.53;80.58
2339;BME280;1180;51.438;6.978;2022-10-04T01:11:15;101026.22;;;15.42;81.06
2339;BME280;1180;51.438;6.978;2022-10-04T01:13:55;101014.94;;;15.30;81.84
2339;BME280;1180;51.438;6.978;2022-10-04T01:16:26;101019.16;;;15.31;81.53
2339;BME280;1180;51.438;6.978;2022-10-04T01:18:52;101011.22;;;15.35;81.37
2339;BME280;1180;51.438;6.978;2022-10-04T01:23:47;101013.59;;;15.51;80.80
2339;BME280;1180;51.438;6.978;2022-10-04T01:28:57;101007.19;;;15.43;80.69
2339;BME280;1180;51.438;6.978;2022-10-04T01:31:25;101008.41;;;15.38;81.24
2339;BME280;1180;51.438;6.978;2022-10-04T01:33:51;100998.19;;;15.36;80.98
2339;BME280;1180;51.438;6.978;2022-10-04T01:36:16;100990.94;;;15.41;80.98
2339;BME280;1180;51.438;6.978;2022-10-04T01:38:42;100985.13;;;15.51;80.38
2339;BME280;1180;51.438;6.978;2022-10-04T01:41:10;100981.81;;;15.49;80.39
2339;BME280;1180;51.438;6.978;2022-10-04T01:43:37;100975.84;;;15.48;80.41
2339;BME280;1180;51.438;6.978;2022-10-04T01:46:19;100983.38;;;15.38;80.90
2339;BME280;1180;51.438;6.978;2022-10-04T01:48:47;100981.31;;;15.43;80.84
2339;BME280;1180;51.438;6.978;2022-10-04T01:53:57;100987.13;;;15.34;80.91
2339;BME280;1180;51.438;6.978;2022-10-04T01:56:49;100980.59;;;15.41;81.08
2339;BME280;1180;51.438;6.978;2022-10-04T01:59:23;100980.28;;;15.46;80.89
2339;BME280;1180;51.438;6.978;2022-10-04T02:02:04;100969.81;;;15.48;80.33
2339;BME280;1180;51.438;6.978;2022-10-04T02:04:33;100970.03;;;15.44;80.69
2339;BME280;1180;51.438;6.978;2022-10-04T02:07:03;100964.56;;;15.36;80.67
2339;BME280;1180;51.438;6.978;2022-10-04T02:09:38;100968.69;;;15.39;80.88
2339;BME280;1180;51.438;6.978;2022-10-04T02:12:05;100960.00;;;15.40;80.93
2339;BME280;1180;51.438;6.978;2022-10-04T02:14:32;100956.47;;;15.41;81.03
2339;BME280;1180;51.438;6.978;2022-10-04T02:16:59;100951.00;;;15.45;80.50
2339;BME280;1180;51.438;6.978;2022-10-04T02:19:31;100953.38;;;15.49;80.47
2339;BME280;1180;51.438;6.978;2022-10-04T02:22:01;100960.91;;;15.52;79.98
2339;BME280;1180;51.438;6.978;2022-10-04T02:24:28;100946.75;;;15.44;80.67
2339;BME280;1180;51.438;6.978;2022-10-04T02:26:55;100946.13;;;15.41;80.67
2339;BME280;1180;51.438;6.978;2022-10-04T02:29:20;100936.63;;;15.41;81.08
2339;BME280;1180;51.438;6.978;2022-10-04T02:31:48;100928.34;;;15.36;80.88
2339;BME280;1180;51.438;6.978;2022-10-04T02:34:34;100925.25;;;15.31;81.41
2339;BME280;1180;51.438;6.978;2022-10-04T02:37:02;100926.41;;;15.27;81.59
2339;BME280;1180;51.438;6.978;2022-10-04T02:39:35;100932.47;;;15.39;81.35
2339;BME280;1180;51.438;6.978;2022-10-04T02:42:11;100927.44;;;15.37;81.04
2339;BME280;1180;51.438;6.978;2022-10-04T02:44:41;100933.94;;;15.43;81.21
2339;BME280;1180;51.438;6.978;2022-10-04T02:47:24;100932.69;;;15.49;80.76
2339;BME280;1180;51.438;6.978;2022-10-04T02:51:05;100935.59;;;15.44;81.25
2339;BME280;1180;51.438;6.978;2022-10-04T02:53:17;100932.16;;;15.43;81.14
2339;BME280;1180;51.438;6.978;2022-10-04T02:55:44;100926.19;;;15.43;81.02
2339;BME280;1180;51.438;6.978;2022-10-04T02:58:14;100928.16;;;15.39;81.44
2339;BME280;1180;51.438;6.978;2022-10-04T03:00:48;100925.97;;;15.33;81.42
2339;BME280;1180;51.438;6.978;2022-10-04T03:05:44;100925.47;;;15.28;81.93
2339;BME280;1180;51.438;6.978;2022-10-04T03:08:11;100927.72;;;15.33;81.23
2339;BME280;1180;51.438;6.978;2022-10-04T03:10:37;100925.97;;;15.33;81.14
2339;BME280;1180;51.438;6.978;2022-10-04T03:13:03;100916.25;;;15.24;81.82
2339;BME280;1180;51.438;6.978;2022-10-04T03:15:30;100907.91;;;15.20;82.15
2339;BME280;1180;51.438;6.978;2022-10-04T03:17:55;100903.03;;;15.15;82.08
2339;BME280;1180;51.438;6.978;2022-10-04T03:20:21;100900.78;;;15.11;82.41
2339;BME280;1180;51.438;6.978;2022-10-04T03:22:50;100898.91;;;15.13;82.26
2339;BME280;1180;51.438;6.978;2022-10-04T03:25:21;100904.38;;;15.08;82.54
2339;BME280;1180;51.438;6.978;2022-10-04T03:27:48;100900.88;;;15.09;82.95
2339;BME280;1180;51.438;6.978;2022-10-04T03:30:15;100896.41;;;15.11;82.75
2339;BME280;1180;51.438;6.978;2022-10-04T03:32:44;100893.03;;;15.11;82.46
2339;BME280;1180;51.438;6.978;2022-10-04T03:35:39;100897.34;;;15.10;82.92
2339;BME280;1180;51.438;6.978;2022-10-04T03:38:07;100901.28;;;15.16;82.50
2339;BME280;1180;51.438;6.978;2022-10-04T03:40:35;100896.41;;;15.11;82.79
2339;BME280;1180;51.438;6.978;2022-10-04T03:43:04;100891.16;;;15.13;82.34
2339;BME280;1180;51.438;6.978;2022-10-04T03:45:31;100895.59;;;15.11;82.45
2339;BME280;1180;51.438;6.978;2022-10-04T03:48:04;100893.84;;;15.11;82.60
2339;BME280;1180;51.438;6.978;2022-10-04T03:50:34;100891.25;;;15.11;81.77
2339;BME280;1180;51.438;6.978;2022-10-04T03:53:08;100892.38;;;15.07;81.79
2339;BME280;1180;51.438;6.978;2022-10-04T03:55:39;100897.88;;;15.02;82.09
2339;BME280;1180;51.438;6.978;2022-10-04T03:58:10;100886.81;;;15.00;82.38
2339;BME280;1180;51.438;6.978;2022-10-04T04:00:42;100876.16;;;14.92;82.79
2339;BME280;1180;51.438;6.978;2022-10-04T04:03:15;100872.44;;;14.96;82.45
2339;BME280;1180;51.438;6.978;2022-10-04T04:05:51;100881.34;;;14.92;82.51
2339;BME280;1180;51.438;6.978;2022-10-04T04:08:32;100881.13;;;14.95;82.29
2339;BME280;1180;51.438;6.978;2022-10-04T04:11:00;100882.47;;;15.01;81.97
2339;BME280;1180;51.438;6.978;2022-10-04T04:16:08;100870.69;;;14.97;82.01
2339;BME280;1180;51.438;6.978;2022-10-04T04:18:36;100870.69;;;14.84;82.71
2339;BME280;1180;51.438;6.978;2022-10-04T04:21:03;100872.94;;;14.88;82.81
2339;BME280;1180;51.438;6.978;2022-10-04T04:23:33;100872.44;;;14.96;82.83
2339;BME280;1180;51.438;6.978;2022-10-04T04:29:00;100865.09;;;14.90;83.10
2339;BME280;1180;51.438;6.978;2022-10-04T04:31:34;100872.66;;;14.80;83.26
2339;BME280;1180;51.438;6.978;2022-10-04T04:34:03;100863.75;;;14.84;83.45
2339;BME280;1180;51.438;6.978;2022-10-04T04:36:37;100865.31;;;14.87;82.67
2339;BME280;1180;51.438;6.978;2022-10-04T04:39:20;100863.75;;;14.97;82.15
2339;BME280;1180;51.438;6.978;2022-10-04T04:42:18;100864.69;;;14.96;82.08
2339;BME280;1180;51.438;6.978;2022-10-04T04:44:55;100858.06;;;14.92;82.19
2339;BME280;1180;51.438;6.978;2022-10-04T04:47:38;100853.84;;;14.91;82.28
2339;BME280;1180;51.438;6.978;2022-10-04T04:50:11;100853.84;;;14.91;82.38
2339;BME280;1180;51.438;6.978;2022-10-04T04:52:39;100847.81;;;14.91;81.95
2339;BME280;1180;51.438;6.978;2022-10-04T04:55:15;100843.94;;;14.85;82.06
2339;BME280;1180;51.438;6.978;2022-10-04T04:57:42;100834.94;;;14.78;82.35
2339;BME280;1180;51.438;6.978;2022-10-04T05:00:16;100836.97;;;14.72;82.55
2339;BME280;1180;51.438;6.978;2022-10-04T05:02:50;100833.38;;;14.75;82.71
2339;BME280;1180;51.438;6.978;2022-10-04T05:05:19;100829.78;;;14.78;82.31
2339;BME280;1180;51.438;6.978;2022-10-04T05:07:45;100832.53;;;14.62;82.62
2339;BME280;1180;51.438;6.978;2022-10-04T05:10:28;100830.16;;;14.71;82.85
2339;BME280;1180;51.438;6.978;2022-10-04T05:12:56;100823.97;;;14.74;82.22
2339;BME280;1180;51.438;6.978;2022-10-04T05:15:24;100827.28;;;14.76;81.95
2339;BME280;1180;51.438;6.978;2022-10-04T05:17:49;100834.22;;;14.76;81.98
2339;BME280;1180;51.438;6.978;2022-10-04T05:20:15;100835.97;;;14.75;82.21
2339;BME280;1180;51.438;6.978;2022-10-04T05:22:45;100842.28;;;14.71;82.51
2339;BME280;1180;51.438;6.978;2022-10-04T05:25:32;100837.81;;;14.73;82.22
2339;BME280;1180;51.438;6.978;2022-10-04T05:27:58;100831.19;;;14.69;82.33
2339;BME280;1180;51.438;6.978;2022-10-04T05:30:45;100834.41;;;14.72;82.02
2339;BME280;1180;51.438;6.978;2022-10-04T05:33:17;100829.34;;;14.71;81.87
2339;BME280;1180;51.438;6.978;2022-10-04T05:43:45;100839.34;;;14.50;82.53
2339;BME280;1180;51.438;6.978;2022-10-04T05:46:30;100837.16;;;14.56;82.38
2339;BME280;1180;51.438;6.978;2022-10-04T05:49:01;100838.22;;;14.54;82.49
2339;BME280;1180;51.438;6.978;2022-10-04T05:51:32;100842.00;;;14.48;82.76
2339;BME280;1180;51.438;6.978;2022-10-04T05:54:02;100844.91;;;14.56;82.55
2339;BME280;1180;51.438;6.978;2022-10-04T06:07:51;100838.72;;;14.59;82.16
2339;BME280;1180;51.438;6.978;2022-10-04T06:11:01;100841.38;;;14.57;84.25
2339;BME280;1180;51.438;6.978;2022-10-04T06:14:06;100838.31;;;14.65;82.17
2339;BME280;1180;51.438;6.978;2022-10-04T06:17:12;100839.88;;;14.68;81.78
2339;BME280;1180;51.438;6.978;2022-10-04T06:22:42;100835.72;;;14.65;81.62
2339;BME280;1180;51.438;6.978;2022-10-04T06:25:22;100836.06;;;14.61;81.80
2339;BME280;1180;51.438;6.978;2022-10-04T06:28:21;100832.84;;;14.57;82.42
2339;BME280;1180;51.438;6.978;2022-10-04T06:32:03;100839.22;;;14.64;82.25
2339;BME280;1180;51.438;6.978;2022-10-04T06:39:36;100842.75;;;14.63;81.90
2339;BME280;1180;51.438;6.978;2022-10-04T06:42:21;100829.41;;;14.69;81.88
2339;BME280;1180;51.438;6.978;2022-10-04T06:50:34;100837.81;;;14.73;81.15
2339;BME280;1180;51.438;6.978;2022-10-04T07:01:34;100840.91;;;14.91;80.82
2339;BME280;1180;51.438;6.978;2022-10-04T07:04:34;100850.94;;;14.96;80.88
2339;BME280;1180;51.438;6.978;2022-10-04T07:07:13;100854.84;;;14.88;80.50
2339;BME280;1180;51.438;6.978;2022-10-04T07:10:32;100857.56;;;15.00;80.70
2339;BME280;1180;51.438;6.978;2022-10-04T07:16:05;100860.22;;;15.11;80.60
2339;BME280;1180;51.438;6.978;2022-10-04T07:24:18;100852.75;;;15.20;79.93
2339;BME280;1180;51.438;6.978;2022-10-04T07:26:51;100853.56;;;15.33;79.31
2339;BME280;1180;51.438;6.978;2022-10-04T07:29:32;100852.44;;;15.37;79.60
2339;BME280;1180;51.438;6.978;2022-10-04T07:34:32;100858.00;;;15.44;78.84
2339;BME280;1180;51.438;6.978;2022-10-04T07:37:09;100860.25;;;15.49;78.06
2339;BME280;1180;51.438;6.978;2022-10-04T07:44:53;100875.50;;;15.65;79.08
2339;BME280;1180;51.438;6.978;2022-10-04T07:47:23;100881.31;;;15.68;79.05
2339;BME280;1180;51.438;6.978;2022-10-04T07:49:54;100884.50;;;15.72;78.48
2339;BME280;1180;51.438;6.978;2022-10-04T07:52:42;100882.13;;;15.69;79.25
2339;BME280;1180;51.438;6.978;2022-10-04T08:01:01;100875.38;;;15.79;78.00
2339;BME280;1180;51.438;6.978;2022-10-04T08:06:33;100876.41;;;15.77;78.08
2339;BME280;1180;51.438;6.978;2022-10-04T08:09:33;100863.78;;;15.72;78.63
2339;BME280;1180;51.438;6.978;2022-10-04T08:15:08;100867.00;;;15.76;78.44
2339;BME280;1180;51.438;6.978;2022-10-04T08:18:20;100865.03;;;15.79;78.47
2339;BME280;1180;51.438;6.978;2022-10-04T08:21:04;100868.41;;;15.80;78.18
2339;BME280;1180;51.438;6.978;2022-10-04T08:43:34;100869.59;;;16.00;78.68
2339;BME280;1180;51.438;6.978;2022-10-04T08:58:14;100866.25;;;16.46;76.05
2339;BME280;1180;51.438;6.978;2022-10-04T09:25:46;100839.81;;;17.00;72.79
2339;BME280;1180;51.438;6.978;2022-10-04T09:37:17;100826.59;;;17.26;71.63
2339;BME280;1180;51.438;6.978;2022-10-04T09:42:58;100817.38;;;17.33;71.14
2339;BME280;1180;51.438;6.978;2022-10-04T09:48:25;100827.38;;;17.49;71.32
2339;BME280;1180;51.438;6.978;2022-10-04T09:53:42;100825.06;;;17.67;70.18
2339;BME280;1180;51.438;6.978;2022-10-04T09:56:48;100816.59;;;17.65;70.75
2339;BME280;1180;51.438;6.978;2022-10-04T10:10:35;100808.50;;;17.80;70.38
2339;BME280;1180;51.438;6.978;2022-10-04T10:25:45;100815.25;;;18.03;69.42
2339;BME280;1180;51.438;6.978;2022-10-04T11:10:42;100784.13;;;18.97;67.37
2339;BME280;1180;51.438;6.978;2022-10-04T11:27:56;100767.22;;;19.22;65.69
2339;BME280;1180;51.438;6.978;2022-10-04T11:30:38;100775.84;;;19.32;64.77
2339;BME280;1180;51.438;6.978;2022-10-04T11:36:55;100770.38;;;19.55;63.45
2339;BME280;1180;51.438;6.978;2022-10-04T11:42:56;100756.81;;;19.52;63.06
2339;BME280;1180;51.438;6.978;2022-10-04T12:11:10;100745.66;;;20.09;61.94
2339;BME280;1180;51.438;6.978;2022-10-04T12:31:56;100717.06;;;20.37;60.07
2339;BME280;1180;51.438;6.978;2022-10-04T12:37:02;100713.00;;;20.52;59.33
2339;BME280;1180;51.438;6.978;2022-10-04T12:42:51;100703.78;;;20.58;58.17
2339;BME280;1180;51.438;6.978;2022-10-04T12:53:12;100693.25;;;20.77;58.43
2339;BME280;1180;51.438;6.978;2022-10-04T12:56:07;100687.97;;;20.87;57.95
2339;BME280;1180;51.438;6.978;2022-10-04T13:04:17;100691.28;;;21.08;58.55
2339;BME280;1180;51.438;6.978;2022-10-04T13:14:48;100677.41;;;21.07;56.76
2339;BME280;1180;51.438;6.978;2022-10-04T13:28:11;100668.34;;;21.38;55.29
2339;BME280;1180;51.438;6.978;2022-10-04T13:30:48;100656.16;;;21.46;55.49
2339;BME280;1180;51.438;6.978;2022-10-04T13:38:54;100647.19;;;21.67;53.83
2339;BME280;1180;51.438;6.978;2022-10-04T13:42:34;100651.97;;;21.72;53.43
2339;BME280;1180;51.438;6.978;2022-10-04T13:47:50;100641.56;;;21.80;52.55
2339;BME280;1180;51.438;6.978;2022-10-04T13:50:42;100640.81;;;21.96;52.43
2339;BME280;1180;51.438;6.978;2022-10-04T14:07:42;100631.69;;;22.00;51.86
2339;BME280;1180;51.438;6.978;2022-10-04T14:16:43;100637.94;;;22.16;53.38
2339;BME280;1180;51.438;6.978;2022-10-04T14:31:26;100628.50;;;22.74;52.08
2339;BME280;1180;51.438;6.978;2022-10-04T14:54:03;100586.31;;;23.75;50.90
2339;BME280;1180;51.438;6.978;2022-10-04T14:56:54;100592.06;;;23.71;49.98
2339;BME280;1180;51.438;6.978;2022-10-04T15:12:42;100593.59;;;23.57;51.83
2339;BME280;1180;51.438;6.978;2022-10-04T15:17:40;100593.25;;;23.60;52.04
2339;BME280;1180;51.438;6.978;2022-10-04T15:20:45;100587.38;;;23.58;52.20
2339;BME280;1180;51.438;6.978;2022-10-04T15:23:47;100594.09;;;23.52;52.46
2339;BME280;1180;51.438;6.978;2022-10-04T15:28:56;100594.09;;;23.52;52.55
2339;BME280;1180;51.438;6.978;2022-10-04T15:34:28;100589.72;;;23.36;51.85
2339;BME280;1180;51.438;6.978;2022-10-04T15:42:40;100603.13;;;23.41;54.19
2339;BME280;1180;51.438;6.978;2022-10-04T15:56:18;100594.63;;;23.06;54.78
2339;BME280;1180;51.438;6.978;2022-10-04T15:59:16;100600.34;;;22.93;55.43
2339;BME280;1180;51.438;6.978;2022-10-04T16:02:33;100593.47;;;23.00;55.23
2339;BME280;1180;51.438;6.978;2022-10-04T16:09:47;100595.44;;;23.23;54.92
2339;BME280;1180;51.438;6.978;2022-10-04T16:14:59;100598.56;;;23.02;55.84
2339;BME280;1180;51.438;6.978;2022-10-04T16:26:04;100597.81;;;22.25;58.19
2339;BME280;1180;51.438;6.978;2022-10-04T16:36:50;100587.06;;;21.59;59.63
2339;BME280;1180;51.438;6.978;2022-10-04T16:53:36;100579.38;;;21.31;60.78
2339;BME280;1180;51.438;6.978;2022-10-04T16:56:17;100582.84;;;21.13;61.24
2339;BME280;1180;51.438;6.978;2022-10-04T16:59:02;100576.25;;;21.01;61.55
2339;BME280;1180;51.438;6.978;2022-10-04T17:01:58;100572.31;;;20.97;61.93
2339;BME280;1180;51.438;6.978;2022-10-04T17:09:46;100575.44;;;20.82;62.17
2339;BME280;1180;51.438;6.978;2022-10-04T17:12:23;100571.72;;;20.85;61.77
2339;BME280;1180;51.438;6.978;2022-10-04T17:15:06;100567.47;;;20.66;62.49
2339;BME280;1180;51.438;6.978;2022-10-04T17:17:51;100564.91;;;20.56;62.51
2339;BME280;1180;51.438;6.978;2022-10-04T17:30:59;100579.97;;;20.16;64.28
2339;BME280;1180;51.438;6.978;2022-10-04T17:38:43;100580.81;;;20.16;64.76
2339;BME280;1180;51.438;6.978;2022-10-04T17:41:17;100580.91;;;20.25;64.60
2339;BME280;1180;51.438;6.978;2022-10-04T17:52:56;100597.88;;;20.01;65.12
2339;BME280;1180;51.438;6.978;2022-10-04T17:55:56;100600.09;;;19.96;65.56
2339;BME280;1180;51.438;6.978;2022-10-04T17:58:29;100599.84;;;19.89;65.89
2339;BME280;1180;51.438;6.978;2022-10-04T18:01:10;100606.28;;;19.85;66.15
2339;BME280;1180;51.438;6.978;2022-10-04T18:06:48;100595.78;;;19.76;66.58
2339;BME280;1180;51.438;6.978;2022-10-04T18:09:28;100599.94;;;19.59;67.02
2339;BME280;1180;51.438;6.978;2022-10-04T18:12:05;100603.78;;;19.55;67.17
2339;BME280;1180;51.438;6.978;2022-10-04T18:17:03;100611.31;;;19.48;67.76
2339;BME280;1180;51.438;6.978;2022-10-04T18:19:36;100606.28;;;19.37;67.92
2339;BME280;1180;51.438;6.978;2022-10-04T18:22:15;100610.13;;;19.33;68.12
2339;BME280;1180;51.438;6.978;2022-10-04T18:24:44;100607.81;;;19.30;68.51
2339;BME280;1180;51.438;6.978;2022-10-04T18:27:22;100606.41;;;19.36;68.10
2339;BME280;1180;51.438;6.978;2022-10-04T18:30:01;100602.59;;;19.40;68.22
2339;BME280;1180;51.438;6.978;2022-10-04T18:32:33;100601.09;;;19.37;68.26
2339;BME280;1180;51.438;6.978;2022-10-04T18:35:01;100604.25;;;19.31;68.65
2339;BME280;1180;51.438;6.978;2022-10-04T18:37:41;100600.00;;;19.30;68.35
2339;BME280;1180;51.438;6.978;2022-10-04T18:40:25;100601.09;;;19.27;68.55
2339;BME280;1180;51.438;6.978;2022-10-04T18:42:53;100606.47;;;19.26;68.60
2339;BME280;1180;51.438;6.978;2022-10-04T18:47:46;100619.19;;;19.19;68.78
2339;BME280;1180;51.438;6.978;2022-10-04T18:52:50;100625.34;;;19.08;69.66
2339;BME280;1180;51.438;6.978;2022-10-04T18:55:24;100628.88;;;18.87;69.83
2339;BME280;1180;51.438;6.978;2022-10-04T19:00:58;100647.09;;;18.77;70.60
2339;BME280;1180;51.438;6.978;2022-10-04T19:03:53;100647.88;;;18.58;70.76
2339;BME280;1180;51.438;6.978;2022-10-04T19:06:25;100634.72;;;18.60;71.45
2339;BME280;1180;51.438;6.978;2022-10-04T19:11:28;100634.75;;;18.70;70.92
2339;BME280;1180;51.438;6.978;2022-10-04T19:52:18;100632.34;;;18.37;73.09
2339;BME280;1180;51.438;6.978;2022-10-04T19:54:50;100631.81;;;18.33;73.46
2339;BME280;1180;51.438;6.978;2022-10-04T19:57:22;100632.50;;;18.36;73.10
2339;BME280;1180;51.438;6.978;2022-10-04T19:59:53;100630.44;;;18.29;73.37
2339;BME280;1180;51.438;6.978;2022-10-04T20:02:18;100635.31;;;18.23;73.75
2339;BME280;1180;51.438;6.978;2022-10-04T20:04:44;100626.97;;;18.19;74.13
2339;BME280;1180;51.438;6.978;2022-10-04T20:12:32;100623.81;;;18.15;74.44
2339;BME280;1180;51.438;6.978;2022-10-04T20:15:12;100628.44;;;18.12;74.71
2339;BME280;1180;51.438;6.978;2022-10-04T20:17:39;100622.81;;;18.07;74.46
2339;BME280;1180;51.438;6.978;2022-10-04T20:20:05;100620.72;;;18.00;75.10
2339;BME280;1180;51.438;6.978;2022-10-04T20:30:55;100614.91;;;17.87;75.73
2339;BME280;1180;51.438;6.978;2022-10-04T20:33:48;100611.69;;;17.95;75.09
2339;BME280;1180;51.438;6.978;2022-10-04T20:39:01;100597.00;;;17.84;75.59
2339;BME280;1180;51.438;6.978;2022-10-04T20:44:00;100597.91;;;17.73;76.13
2339;BME280;1180;51.438;6.978;2022-10-04T20:46:32;100592.59;;;17.74;75.97
2339;BME280;1180;51.438;6.978;2022-10-04T20:49:03;100588.63;;;17.70;76.05
2339;BME280;1180;51.438;6.978;2022-10-04T20:51:29;100589.44;;;17.71;75.86
2339;BME280;1180;51.438;6.978;2022-10-04T20:53:58;100583.44;;;17.70;76.25
2339;BME280;1180;51.438;6.978;2022-10-04T20:56:27;100577.84;;;17.75;75.71
2339;BME280;1180;51.438;6.978;2022-10-04T20:58:57;100586.13;;;17.69;75.63
2339;BME280;1180;51.438;6.978;2022-10-04T21:01:26;100584.75;;;17.65;75.96
2339;BME280;1180;51.438;6.978;2022-10-04T21:06:54;100583.38;;;17.60;76.35
2339;BME280;1180;51.438;6.978;2022-10-04T21:09:21;100577.22;;;17.61;76.53
2339;BME280;1180;51.438;6.978;2022-10-04T21:11:49;100580.66;;;17.62;76.33
2339;BME280;1180;51.438;6.978;2022-10-04T21:16:48;100589.84;;;17.66;76.36
2339;BME280;1180;51.438;6.978;2022-10-04T21:21:59;100589.41;;;17.61;76.45
2339;BME280;1180;51.438;6.978;2022-10-04T21:27:32;100595.91;;;17.55;76.94
2339;BME280;1180;51.438;6.978;2022-10-04T21:30:05;100601.09;;;17.55;77.02
2339;BME280;1180;51.438;6.978;2022-10-04T21:32:35;100594.53;;;17.51;77.02
2339;BME280;1180;51.438;6.978;2022-10-04T21:35:01;100605.88;;;17.50;77.24
2339;BME280;1180;51.438;6.978;2022-10-04T21:37:28;100596.03;;;17.54;77.08
2339;BME280;1180;51.438;6.978;2022-10-04T21:39:53;100592.06;;;17.50;77.08
2339;BME280;1180;51.438;6.978;2022-10-04T21:42:19;100602.69;;;17.46;77.31
2339;BME280;1180;51.438;6.978;2022-10-04T21:44:45;100593.16;;;17.47;77.39
2339;BME280;1180;51.438;6.978;2022-10-04T21:47:10;100586.44;;;17.44;77.13
2339;BME280;1180;51.438;6.978;2022-10-04T21:49:35;100584.22;;;17.40;78.02
2339;BME280;1180;51.438;6.978;2022-10-04T21:52:01;100580.41;;;17.23;78.26
2339;BME280;1180;51.438;6.978;2022-10-04T21:54:27;100577.34;;;17.29;78.43
2339;BME280;1180;51.438;6.978;2022-10-04T21:56:52;100583.59;;;17.26;78.53
2339;BME280;1180;51.438;6.978;2022-10-04T21:59:19;100579.22;;;17.27;78.79
2339;BME280;1180;51.438;6.978;2022-10-04T22:01:44;100588.53;;;17.29;78.26
2339;BME280;1180;51.438;6.978;2022-10-04T22:04:10;100597.25;;;17.28;78.60
2339;BME280;1180;51.438;6.978;2022-10-04T22:06:35;100599.28;;;17.25;78.75
2339;BME280;1180;51.438;6.978;2022-10-04T22:09:00;100610.03;;;17.20;79.00
2339;BME280;1180;51.438;6.978;2022-10-04T22:11:26;100605.22;;;17.15;79.34
2339;BME280;1180;51.438;6.978;2022-10-04T22:13:51;100601.81;;;17.15;79.54
2339;BME280;1180;51.438;6.978;2022-10-04T22:16:16;100599.91;;;17.17;79.09
2339;BME280;1180;51.438;6.978;2022-10-04T22:18:42;100597.44;;;17.15;79.37
2339;BME280;1180;51.438;6.978;2022-10-04T22:21:07;100584.03;;;17.10;79.11
2339;BME280;1180;51.438;6.978;2022-10-04T22:23:40;100569.78;;;17.04;79.81
2339;BME280;1180;51.438;6.978;2022-10-04T22:28:51;100564.91;;;17.11;79.35
2339;BME280;1180;51.438;6.978;2022-10-04T22:31:19;100565.75;;;17.12;79.11
2339;BME280;1180;51.438;6.978;2022-10-04T22:33:47;100576.00;;;17.13;79.19
2339;BME280;1180;51.438;6.978;2022-10-04T22:38:53;100574.16;;;17.04;79.61
2339;BME280;1180;51.438;6.978;2022-10-04T22:41:20;100584.53;;;17.04;79.34
2339;BME280;1180;51.438;6.978;2022-10-04T22:43:48;100589.81;;;17.02;79.57
2339;BME280;1180;51.438;6.978;2022-10-04T22:46:16;100578.91;;;16.99;79.68
2339;BME280;1180;51.438;6.978;2022-10-04T22:48:47;100588.75;;;17.05;79.20
2339;BME280;1180;51.438;6.978;2022-10-04T22:51:13;100585.59;;;17.01;78.97
2339;BME280;1180;51.438;6.978;2022-10-04T22:53:44;100581.50;;;16.99;79.63
2339;BME280;1180;51.438;6.978;2022-10-04T22:56:13;100580.31;;;16.92;79.89
2339;BME280;1180;51.438;6.978;2022-10-04T22:58:40;100585.72;;;16.88;80.15
2339;BME280;1180;51.438;6.978;2022-10-04T23:01:13;100579.38;;;16.93;80.22
2339;BME280;1180;51.438;6.978;2022-10-04T23:03:39;100577.47;;;16.95;79.86
2339;BME280;1180;51.438;6.978;2022-10-04T23:06:08;100571.34;;;16.96;79.70
2339;BME280;1180;51.438;6.978;2022-10-04T23:08:39;100570.50;;;16.95;79.80
2339;BME280;1180;51.438;6.978;2022-10-04T23:11:04;100565.78;;;17.00;79.79
2339;BME280;1180;51.438;6.978;2022-10-04T23:13:29;100562.72;;;16.95;79.66
2339;BME280;1180;51.438;6.978;2022-10-04T23:15:58;100559.34;;;16.95;79.96
2339;BME280;1180;51.438;6.978;2022-10-04T23:18:26;100571.34;;;16.96;79.99
2339;BME280;1180;51.438;6.978;2022-10-04T23:20:55;100554.41;;;16.92;80.04
2339;BME280;1180;51.438;6.978;2022-10-04T23:23:22;100561.44;;;16.89;80.22
2339;BME280;1180;51.438;6.978;2022-10-04T23:25:47;100564.03;;;17.01;79.33
2339;BME280;1180;51.438;6.978;2022-10-04T23:28:15;100566.63;;;17.01;79.24
2339;BME280;1180;51.438;6.978;2022-10-04T23:30:42;100576.38;;;16.97;79.69
2339;BME280;1180;51.438;6.978;2022-10-04T23:33:17;100571.13;;;16.99;79.68
2339;BME280;1180;51.438;6.978;2022-10-04T23:35:43;100560.75;;;16.99;79.52
2339;BME280;1180;51.438;6.978;2022-10-04T23:38:15;100564.28;;;16.98;79.88
2339;BME280;1180;51.438;6.978;2022-10-04T23:40:41;100564.50;;;16.95;80.08
2339;BME280;1180;51.438;6.978;2022-10-04T23:43:17;100566.97;;;16.96;79.86
2339;BME280;1180;51.438;6.978;2022-10-04T23:45:44;100552.38;;;16.95;80.08
2339;BME280;1180;51.438;6.978;2022-10-04T23:48:20;100553.31;;;16.94;79.80
2339;BME280;1180;51.438;6.978;2022-10-04T23:50:47;100551.06;;;16.89;80.39
2339;BME280;1180;51.438;6.978;2022-10-04T23:53:25;100548.03;;;16.84;80.87
2339;BME280;1180;51.438;6.978;2022-10-04T23:55:53;100539.31;;;16.85;80.80
2339;BME280;1180;51.438;6.978;2022-10-04T23:58:24;100539.53;;;16.94;80.30
